Time;durP1;ratioP1;P1;durP2;ratioP2;P2;SDS_P1;SDS_P2;PMS_P1;PMS_P2;Temp;Humidity;BMP_temperature;BMP_pressure;BME280_temperature;BME280_humidity;BME280_pressure;Samples;Min_cycle;Max_cycle;Signal;HPM_P1;HPM_P2
2022/05/21 00:01:03;;;;;;;0.40;0.20;;;18.90;99.90;;;;;;5093869;28;20457;-89
2022/05/21 00:03:30;;;;;;;0.40;0.20;;;19.00;99.90;;;;;;5103925;28;20876;-89
2022/05/21 00:05:58;;;;;;;0.40;0.20;;;19.00;99.90;;;;;;5083619;28;20474;-89
2022/05/21 00:08:26;;;;;;;0.40;0.20;;;19.10;99.90;;;;;;5086456;28;20529;-89
2022/05/21 00:10:54;;;;;;;0.37;0.20;;;19.10;99.90;;;;;;5086405;28;20464;-90
2022/05/21 00:13:21;;;;;;;0.40;0.20;;;19.10;99.90;;;;;;5083561;28;20464;-90
2022/05/21 00:15:50;;;;;;;0.40;0.20;;;19.20;99.90;;;;;;5083863;28;21292;-90
2022/05/21 00:18:19;;;;;;;0.40;0.30;;;19.20;99.90;;;;;;5083035;28;20460;-90
2022/05/21 00:20:49;;;;;;;0.40;0.30;;;19.20;99.90;;;;;;5081653;28;20460;-90
2022/05/21 00:23:20;;;;;;;0.40;0.20;;;19.20;99.90;;;;;;5082551;28;20587;-90
2022/05/21 00:25:50;;;;;;;0.33;0.20;;;19.20;99.90;;;;;;5080398;28;20480;-89
2022/05/21 00:28:17;;;;;;;0.40;0.20;;;19.10;99.90;;;;;;5085128;28;20465;-90
2022/05/21 00:30:45;;;;;;;0.40;0.20;;;19.00;99.90;;;;;;5092542;28;20452;-90
2022/05/21 00:33:14;;;;;;;0.40;0.20;;;19.00;99.90;;;;;;5113207;28;20530;-91
2022/05/21 00:35:42;;;;;;;0.40;0.20;;;19.00;99.90;;;;;;5112593;28;20476;-90
2022/05/21 00:38:11;;;;;;;0.40;0.20;;;19.10;99.90;;;;;;5108847;28;20532;-91
2022/05/21 00:40:39;;;;;;;0.40;0.20;;;19.20;99.90;;;;;;5113008;28;20451;-91
2022/05/21 00:43:07;;;;;;;0.40;0.20;;;19.10;99.90;;;;;;5109918;28;20540;-90
2022/05/21 00:45:35;;;;;;;0.30;0.20;;;19.00;99.90;;;;;;5116421;28;20511;-90
2022/05/21 00:48:02;;;;;;;0.40;0.20;;;19.10;99.90;;;;;;5120860;28;20481;-92
2022/05/21 00:50:31;;;;;;;0.40;0.20;;;19.20;99.90;;;;;;5107943;28;20467;-91
2022/05/21 00:53:00;;;;;;;0.97;0.30;;;19.20;99.90;;;;;;5089418;28;21217;-91
2022/05/21 00:55:32;;;;;;;0.40;0.20;;;19.20;99.90;;;;;;5088158;28;20736;-91
2022/05/21 01:00:47;;;;;;;0.40;0.20;;;19.00;99.90;;;;;;5089149;28;20612;-90
2022/05/21 01:03:16;;;;;;;0.40;0.30;;;18.70;99.90;;;;;;5090480;28;20466;-91
2022/05/21 01:05:47;;;;;;;0.40;0.20;;;18.50;99.90;;;;;;5094412;28;20477;-91
2022/05/21 01:08:15;;;;;;;0.40;0.20;;;18.50;99.90;;;;;;5085790;28;20633;-91
2022/05/21 01:10:48;;;;;;;0.40;0.20;;;18.50;99.90;;;;;;5099569;28;20546;-90
2022/05/21 01:13:21;;;;;;;0.40;0.20;;;18.40;99.90;;;;;;5083905;28;20820;-90
2022/05/21 01:15:53;;;;;;;0.40;0.20;;;18.50;99.90;;;;;;5092302;28;20848;-91
2022/05/21 01:18:20;;;;;;;0.40;0.30;;;18.50;99.90;;;;;;5083731;28;20460;-90
2022/05/21 01:20:55;;;;;;;0.40;0.20;;;18.60;99.90;;;;;;5089364;28;20459;-91
2022/05/21 01:23:25;;;;;;;0.40;0.30;;;18.60;99.90;;;;;;5084363;28;20484;-90
2022/05/21 01:25:54;;;;;;;0.40;0.20;;;18.60;99.90;;;;;;5087796;28;21022;-90
2022/05/21 01:28:25;;;;;;;0.40;0.20;;;18.70;99.90;;;;;;5086954;28;20454;-90
2022/05/21 01:30:55;;;;;;;0.40;0.20;;;18.70;99.90;;;;;;5092484;28;20533;-90
2022/05/21 01:33:26;;;;;;;0.30;0.20;;;18.70;99.90;;;;;;5093931;28;20441;-90
2022/05/21 01:35:57;;;;;;;0.40;0.30;;;18.70;99.90;;;;;;5091168;28;20441;-90
2022/05/21 01:38:30;;;;;;;0.40;0.20;;;18.70;99.90;;;;;;5094259;28;20675;-91
2022/05/21 01:40:58;;;;;;;0.40;0.20;;;18.60;99.90;;;;;;5093086;28;20450;-90
2022/05/21 01:46:12;;;;;;;0.40;0.20;;;18.40;99.90;;;;;;5088777;28;21989;-91
2022/05/21 01:48:39;;;;;;;0.40;0.20;;;18.30;99.90;;;;;;5088581;28;20457;-90
2022/05/21 01:51:08;;;;;;;0.30;0.20;;;18.30;99.90;;;;;;5091857;28;20944;-90
2022/05/21 01:53:38;;;;;;;0.40;0.30;;;18.40;99.90;;;;;;5090201;28;20462;-88
2022/05/21 01:56:07;;;;;;;0.30;0.20;;;18.10;99.90;;;;;;5089230;28;20474;-89
2022/05/21 01:58:35;;;;;;;0.30;0.20;;;17.70;99.90;;;;;;5083916;28;20471;-88
2022/05/21 02:01:04;;;;;;;0.30;0.20;;;17.50;99.90;;;;;;5088212;28;20801;-88
2022/05/21 02:03:32;;;;;;;0.30;0.20;;;17.20;99.90;;;;;;5090561;28;20469;-88
2022/05/21 02:05:59;;;;;;;0.30;0.20;;;17.10;99.90;;;;;;5081177;28;20492;-90
2022/05/21 02:08:27;;;;;;;0.30;0.20;;;17.10;99.90;;;;;;5087050;28;20454;-89
2022/05/21 02:10:56;;;;;;;0.30;0.20;;;17.10;99.90;;;;;;5087983;28;20473;-89
2022/05/21 02:13:25;;;;;;;0.40;0.30;;;17.00;99.90;;;;;;5083016;28;20470;-88
2022/05/21 02:15:53;;;;;;;0.30;0.20;;;16.90;99.90;;;;;;5091562;28;20470;-91
2022/05/21 02:18:21;;;;;;;0.30;0.20;;;17.00;99.90;;;;;;5083531;28;20456;-88
2022/05/21 02:20:49;;;;;;;0.30;0.20;;;17.00;99.90;;;;;;5086777;28;20466;-90
2022/05/21 02:23:17;;;;;;;0.30;0.20;;;17.10;99.90;;;;;;5088416;28;20540;-91
2022/05/21 02:25:45;;;;;;;0.60;0.40;;;17.00;99.90;;;;;;5091296;28;20493;-90
2022/05/21 02:28:14;;;;;;;0.30;0.20;;;17.00;99.90;;;;;;5084029;28;20474;-89
2022/05/21 02:30:43;;;;;;;0.30;0.20;;;17.00;99.90;;;;;;5084952;28;20503;-90
2022/05/21 02:33:10;;;;;;;0.30;0.20;;;17.10;99.90;;;;;;5085229;28;20470;-91
2022/05/21 02:35:40;;;;;;;0.30;0.30;;;17.00;99.90;;;;;;5086452;28;20450;-89
2022/05/21 02:40:53;;;;;;;0.30;0.20;;;17.00;99.90;;;;;;5089736;28;20499;-89
2022/05/21 02:43:22;;;;;;;0.30;0.20;;;17.00;99.90;;;;;;5098414;28;20497;-91
2022/05/21 02:45:50;;;;;;;0.30;0.20;;;17.10;99.90;;;;;;5092430;28;20478;-91
2022/05/21 02:48:18;;;;;;;0.30;0.20;;;17.20;99.90;;;;;;5083531;28;20972;-92
2022/05/21 02:50:46;;;;;;;0.30;0.20;;;17.20;99.90;;;;;;5087669;28;20462;-90
2022/05/21 02:53:17;;;;;;;0.30;0.20;;;17.20;99.90;;;;;;5083903;28;20459;-90
2022/05/21 02:55:44;;;;;;;0.30;0.20;;;17.20;99.90;;;;;;5090309;28;20489;-90
2022/05/21 02:58:12;;;;;;;0.30;0.20;;;17.10;99.90;;;;;;5091305;28;20463;-92
2022/05/21 03:00:42;;;;;;;0.30;0.20;;;17.20;99.90;;;;;;5088566;28;20478;-90
2022/05/21 03:03:12;;;;;;;0.40;0.30;;;17.20;99.90;;;;;;5084675;28;20922;-89
2022/05/21 03:05:40;;;;;;;0.30;0.20;;;17.20;99.90;;;;;;5083785;28;20478;-90
2022/05/21 03:10:53;;;;;;;0.30;0.20;;;17.10;99.90;;;;;;5091916;28;20945;-90
2022/05/21 03:13:20;;;;;;;0.30;0.20;;;17.20;99.90;;;;;;5097380;28;20446;-90
2022/05/21 03:15:50;;;;;;;0.30;0.20;;;17.20;99.90;;;;;;5095204;28;20581;-89
2022/05/21 03:18:21;;;;;;;0.30;0.20;;;17.30;99.90;;;;;;5097586;28;21403;-88
2022/05/21 03:20:48;;;;;;;0.30;0.20;;;17.20;99.90;;;;;;5100607;28;20443;-89
2022/05/21 03:23:16;;;;;;;0.30;0.20;;;17.20;99.90;;;;;;5092433;28;20574;-90
2022/05/21 03:25:44;;;;;;;0.40;0.30;;;17.20;99.90;;;;;;5085650;28;20493;-91
2022/05/21 03:28:15;;;;;;;0.40;0.30;;;17.10;99.90;;;;;;5091407;28;20581;-89
2022/05/21 03:30:43;;;;;;;0.30;0.20;;;17.10;99.90;;;;;;5083644;28;20948;-90
2022/05/21 03:33:12;;;;;;;0.30;0.20;;;17.10;99.90;;;;;;5090213;28;20545;-91
2022/05/21 03:35:41;;;;;;;0.30;0.20;;;17.10;99.90;;;;;;5085748;28;20447;-90
2022/05/21 03:38:09;;;;;;;0.30;0.20;;;17.10;99.90;;;;;;5087532;28;20446;-90
2022/05/21 03:40:37;;;;;;;0.30;0.20;;;17.20;99.90;;;;;;5091637;28;20454;-90
2022/05/21 03:43:04;;;;;;;0.30;0.20;;;17.10;99.90;;;;;;5083755;28;20463;-89
2022/05/21 03:45:32;;;;;;;0.30;0.20;;;17.20;99.90;;;;;;5085842;28;20942;-90
2022/05/21 03:47:59;;;;;;;0.30;0.20;;;17.20;99.90;;;;;;5087164;28;20470;-89
2022/05/21 03:50:31;;;;;;;0.40;0.20;;;17.10;99.90;;;;;;5087636;28;21248;-89
2022/05/21 03:52:59;;;;;;;0.30;0.20;;;17.20;99.90;;;;;;5084818;28;20532;-90
2022/05/21 03:55:26;;;;;;;0.40;0.30;;;17.20;99.90;;;;;;5084241;28;21133;-89
2022/05/21 03:57:54;;;;;;;0.30;0.20;;;17.20;99.90;;;;;;5084003;28;20465;-91
2022/05/21 04:00:22;;;;;;;0.30;0.20;;;17.20;99.90;;;;;;5080475;28;20542;-91
2022/05/21 04:02:49;;;;;;;0.30;0.20;;;17.20;99.90;;;;;;5078112;28;20466;-90
2022/05/21 04:05:18;;;;;;;0.30;0.20;;;17.30;99.90;;;;;;5087663;28;20455;-90
2022/05/21 04:07:46;;;;;;;0.30;0.20;;;17.30;99.90;;;;;;5082861;28;20521;-91
2022/05/21 04:10:16;;;;;;;0.30;0.20;;;17.30;99.90;;;;;;5081016;28;20463;-91
2022/05/21 04:12:44;;;;;;;0.30;0.20;;;17.30;99.90;;;;;;5086122;28;20463;-89
2022/05/21 04:15:15;;;;;;;0.30;0.20;;;17.30;99.90;;;;;;5086987;28;20494;-89
2022/05/21 04:17:42;;;;;;;0.30;0.20;;;17.30;99.90;;;;;;5081899;28;20832;-89
2022/05/21 04:20:13;;;;;;;0.30;0.20;;;17.30;99.90;;;;;;5086428;28;20465;-89
2022/05/21 04:22:40;;;;;;;0.30;0.20;;;17.30;99.90;;;;;;5082346;28;20475;-89
2022/05/21 04:25:10;;;;;;;0.30;0.20;;;17.30;99.90;;;;;;5086747;28;20482;-90
2022/05/21 04:27:39;;;;;;;0.30;0.20;;;17.40;99.90;;;;;;5080040;28;20467;-89
2022/05/21 04:30:10;;;;;;;0.30;0.20;;;17.40;99.90;;;;;;5091294;28;20485;-90
2022/05/21 04:32:38;;;;;;;0.30;0.20;;;17.40;99.90;;;;;;5086253;28;20802;-89
2022/05/21 04:35:10;;;;;;;0.33;0.33;;;17.40;99.90;;;;;;5106736;28;20446;-90
2022/05/21 04:37:38;;;;;;;0.30;0.20;;;17.40;99.90;;;;;;5097329;28;20814;-90
2022/05/21 04:40:08;;;;;;;0.30;0.20;;;17.40;99.90;;;;;;5094625;28;20454;-90
2022/05/21 04:42:37;;;;;;;0.40;0.33;;;17.40;99.90;;;;;;5085454;28;20453;-89
2022/05/21 04:45:06;;;;;;;0.77;0.40;;;17.40;99.90;;;;;;5084200;28;20949;-87
2022/05/21 04:47:33;;;;;;;0.30;0.20;;;17.40;99.90;;;;;;5088146;28;20486;-87
2022/05/21 04:50:00;;;;;;;0.37;0.23;;;17.40;99.90;;;;;;5085406;28;20446;-87
2022/05/21 04:52:28;;;;;;;0.30;0.20;;;17.40;99.90;;;;;;5089945;28;20435;-87
2022/05/21 04:54:56;;;;;;;0.30;0.20;;;17.40;99.90;;;;;;5085309;28;20458;-89
2022/05/21 04:57:23;;;;;;;1.00;0.47;;;17.40;99.90;;;;;;5083355;28;20533;-87
2022/05/21 04:59:52;;;;;;;0.30;0.20;;;17.40;99.90;;;;;;5088359;28;20455;-86
2022/05/21 05:02:22;;;;;;;0.30;0.27;;;17.50;99.90;;;;;;5085652;28;20942;-91
2022/05/21 05:04:49;;;;;;;0.30;0.20;;;17.60;99.90;;;;;;5090859;28;20467;-90
2022/05/21 05:07:19;;;;;;;0.30;0.20;;;17.70;99.90;;;;;;5101828;28;20487;-89
2022/05/21 05:09:47;;;;;;;0.30;0.20;;;17.70;99.90;;;;;;5098897;28;20473;-89
2022/05/21 05:12:14;;;;;;;0.30;0.20;;;17.70;99.90;;;;;;5093634;28;20515;-90
2022/05/21 05:14:41;;;;;;;0.30;0.20;;;17.60;99.90;;;;;;5090602;28;20459;-89
2022/05/21 05:17:14;;;;;;;0.30;0.20;;;17.70;99.90;;;;;;5087072;28;20466;-90
2022/05/21 05:19:42;;;;;;;0.30;0.20;;;17.70;99.90;;;;;;5089677;28;20956;-90
2022/05/21 05:22:10;;;;;;;0.30;0.20;;;17.80;99.90;;;;;;5085063;28;20498;-89
2022/05/21 05:24:37;;;;;;;0.30;0.20;;;17.80;99.90;;;;;;5097923;28;20484;-91
2022/05/21 05:27:06;;;;;;;0.30;0.20;;;17.90;99.90;;;;;;5090806;28;20976;-90
2022/05/21 05:29:33;;;;;;;0.30;0.30;;;18.00;99.90;;;;;;5087247;28;20459;-89
2022/05/21 05:32:00;;;;;;;0.30;0.20;;;18.10;99.90;;;;;;5091380;28;20457;-91
2022/05/21 05:34:29;;;;;;;0.30;0.20;;;18.10;99.90;;;;;;5087078;28;20452;-89
2022/05/21 05:36:57;;;;;;;0.30;0.20;;;18.30;99.90;;;;;;5090697;28;20447;-89
2022/05/21 05:39:24;;;;;;;0.30;0.20;;;18.30;99.90;;;;;;5086639;28;20451;-90
2022/05/21 05:41:52;;;;;;;0.30;0.23;;;18.40;99.90;;;;;;5086988;28;20455;-90
2022/05/21 05:44:20;;;;;;;0.30;0.20;;;18.50;99.90;;;;;;5088690;28;20629;-90
2022/05/21 05:46:52;;;;;;;0.30;0.20;;;18.30;99.90;;;;;;5073773;28;20518;-89
2022/05/21 05:49:19;;;;;;;0.30;0.20;;;18.20;99.90;;;;;;5083357;28;20558;-89
2022/05/21 05:51:48;;;;;;;0.30;0.20;;;18.20;99.90;;;;;;5086634;28;20520;-90
2022/05/21 05:54:16;;;;;;;0.30;0.20;;;18.30;99.90;;;;;;5085658;28;20458;-90
2022/05/21 05:56:44;;;;;;;0.40;0.30;;;18.30;99.90;;;;;;5094512;28;20465;-89
2022/05/21 06:04:37;;;;;;;0.57;0.57;;;18.00;99.90;;;;;;5078993;28;20922;-91
2022/05/21 06:07:06;;;;;;;0.30;0.20;;;17.90;99.90;;;;;;5084665;28;20474;-90
2022/05/21 06:09:34;;;;;;;1.90;0.40;;;17.90;99.90;;;;;;5086611;28;20580;-90
2022/05/21 06:12:02;;;;;;;0.30;0.20;;;18.00;99.90;;;;;;5088124;28;20545;-91
2022/05/21 06:14:29;;;;;;;0.30;0.20;;;18.00;99.90;;;;;;5089557;28;20928;-90
2022/05/21 06:16:57;;;;;;;0.30;0.20;;;18.20;99.90;;;;;;5086520;28;20461;-89
2022/05/21 06:19:24;;;;;;;0.30;0.20;;;18.30;99.90;;;;;;5086569;28;20510;-90
2022/05/21 06:21:57;;;;;;;0.30;0.20;;;18.60;99.90;;;;;;5087480;28;20532;-90
2022/05/21 06:24:26;;;;;;;0.30;0.20;;;18.50;99.90;;;;;;5083649;28;20454;-91
2022/05/21 06:26:53;;;;;;;0.30;0.20;;;18.40;99.90;;;;;;5079868;28;20490;-90
2022/05/21 06:29:21;;;;;;;0.30;0.20;;;18.30;99.90;;;;;;5088523;28;20454;-90
2022/05/21 06:31:48;;;;;;;0.30;0.20;;;18.30;99.90;;;;;;5099971;28;20451;-91
2022/05/21 06:34:16;;;;;;;0.30;0.20;;;18.40;99.90;;;;;;5108697;28;20450;-90
2022/05/21 06:36:43;;;;;;;0.30;0.20;;;18.30;99.90;;;;;;5089163;28;20482;-90
2022/05/21 06:39:11;;;;;;;0.30;0.20;;;18.20;99.90;;;;;;5090068;28;20458;-90
2022/05/21 06:41:40;;;;;;;0.30;0.20;;;18.10;99.90;;;;;;5095795;28;20458;-89
2022/05/21 06:44:09;;;;;;;0.30;0.20;;;17.90;99.90;;;;;;5089361;28;21109;-91
2022/05/21 06:46:37;;;;;;;0.30;0.20;;;17.80;99.90;;;;;;5094079;28;20446;-93
2022/05/21 06:49:05;;;;;;;0.30;0.20;;;17.80;99.90;;;;;;5088386;28;20841;-89
2022/05/21 06:51:32;;;;;;;0.40;0.40;;;17.90;99.90;;;;;;5089214;28;22304;-89
2022/05/21 06:54:00;;;;;;;0.40;0.33;;;18.10;99.90;;;;;;5096630;28;20451;-91
2022/05/21 06:56:27;;;;;;;0.30;0.20;;;18.10;99.90;;;;;;5093449;28;20585;-90
2022/05/21 06:58:56;;;;;;;0.30;0.30;;;18.10;99.90;;;;;;5077051;28;20494;-90
2022/05/21 07:01:23;;;;;;;0.40;0.40;;;18.00;99.90;;;;;;5081510;28;20459;-89
2022/05/21 07:03:51;;;;;;;0.30;0.20;;;18.10;99.90;;;;;;5079515;28;20460;-88
2022/05/21 07:09:03;;;;;;;0.30;0.20;;;18.40;99.90;;;;;;5080653;28;20462;-88
2022/05/21 07:11:32;;;;;;;0.30;0.20;;;18.50;99.90;;;;;;5082725;28;21161;-89
2022/05/21 07:14:01;;;;;;;0.30;0.20;;;18.70;99.90;;;;;;5079168;28;20951;-88
2022/05/21 07:16:29;;;;;;;0.30;0.20;;;18.80;99.90;;;;;;5077892;28;20466;-87
2022/05/21 07:18:56;;;;;;;0.30;0.20;;;18.60;99.90;;;;;;5082127;28;20470;-87
2022/05/21 07:21:23;;;;;;;0.30;0.20;;;18.40;99.90;;;;;;5074240;28;21187;-90
2022/05/21 07:23:51;;;;;;;0.30;0.20;;;18.70;99.90;;;;;;5076657;28;20466;-88
2022/05/21 07:26:21;;;;;;;0.30;0.20;;;18.80;99.90;;;;;;5072899;28;20459;-90
2022/05/21 07:28:50;;;;;;;0.30;0.20;;;18.70;99.90;;;;;;5085964;28;20522;-86
2022/05/21 07:31:19;;;;;;;2.57;0.77;;;18.80;99.90;;;;;;5083819;28;20473;-87
2022/05/21 07:33:46;;;;;;;0.30;0.20;;;19.10;99.90;;;;;;5080132;28;20470;-89
2022/05/21 07:36:14;;;;;;;0.30;0.20;;;19.20;99.90;;;;;;5087153;28;20461;-88
2022/05/21 07:38:41;;;;;;;0.30;0.20;;;19.40;99.90;;;;;;5076927;28;21152;-88
2022/05/21 07:41:09;;;;;;;0.30;0.20;;;19.70;99.90;;;;;;5078915;28;20478;-86
2022/05/21 07:43:38;;;;;;;0.30;0.20;;;19.90;99.90;;;;;;5079488;28;20474;-87
2022/05/21 07:46:07;;;;;;;0.40;0.20;;;20.00;99.90;;;;;;5077997;28;20475;-87
2022/05/21 07:48:36;;;;;;;0.40;0.40;;;20.30;99.90;;;;;;5081313;28;20485;-87
2022/05/21 07:51:06;;;;;;;0.30;0.20;;;20.40;99.90;;;;;;5077524;28;20461;-87
2022/05/21 07:53:37;;;;;;;0.83;0.50;;;20.70;99.90;;;;;;5084994;28;20457;-85
2022/05/21 07:56:05;;;;;;;0.30;0.20;;;20.60;99.90;;;;;;5084614;28;20475;-85
2022/05/21 07:58:33;;;;;;;0.30;0.20;;;20.40;99.90;;;;;;5076053;28;20465;-85
2022/05/21 08:01:00;;;;;;;0.30;0.20;;;20.50;99.90;;;;;;5083189;28;20477;-87
2022/05/21 08:03:29;;;;;;;0.60;0.40;;;20.70;99.90;;;;;;5082750;28;20463;-87
2022/05/21 08:05:58;;;;;;;0.30;0.30;;;20.90;99.90;;;;;;5085182;28;20455;-87
2022/05/21 08:08:25;;;;;;;0.30;0.20;;;20.60;99.90;;;;;;5086336;28;20487;-89
2022/05/21 08:10:53;;;;;;;0.40;0.40;;;20.60;99.90;;;;;;5083759;28;20452;-86
2022/05/21 08:13:21;;;;;;;0.33;0.27;;;20.70;99.90;;;;;;5080468;28;20460;-86
2022/05/21 08:15:48;;;;;;;0.40;0.30;;;21.00;99.90;;;;;;5079374;28;20520;-86
2022/05/21 08:18:16;;;;;;;0.40;0.30;;;20.80;99.90;;;;;;5078401;28;20471;-86
2022/05/21 08:20:44;;;;;;;0.30;0.20;;;20.70;99.90;;;;;;5085591;28;20857;-87
2022/05/21 08:28:46;;;;;;;0.37;0.27;;;20.80;99.90;;;;;;5088794;28;20511;-86
2022/05/21 08:31:13;;;;;;;0.40;0.20;;;21.00;99.90;;;;;;5098707;28;20468;-86
2022/05/21 08:33:41;;;;;;;0.30;0.27;;;20.80;99.90;;;;;;5093806;28;20546;-87
2022/05/21 08:36:09;;;;;;;0.30;0.20;;;20.70;99.90;;;;;;5076599;28;20976;-88
2022/05/21 08:38:38;;;;;;;0.30;0.20;;;20.70;99.90;;;;;;5080960;28;20542;-85
2022/05/21 08:41:11;;;;;;;0.30;0.20;;;20.60;99.90;;;;;;5084871;28;20463;-89
2022/05/21 08:43:50;;;;;;;0.30;0.20;;;20.50;99.90;;;;;;5089690;28;20531;-90
2022/05/21 08:46:25;;;;;;;0.40;0.30;;;20.80;99.90;;;;;;5078505;28;20979;-91
2022/05/21 08:48:57;;;;;;;0.30;0.20;;;21.00;99.90;;;;;;5086838;28;20530;-90
2022/05/21 08:51:29;;;;;;;0.40;0.30;;;21.30;99.90;;;;;;5089064;28;20468;-90
2022/05/21 08:53:59;;;;;;;0.30;0.20;;;21.20;99.90;;;;;;5086022;28;20459;-90
2022/05/21 08:56:27;;;;;;;0.40;0.20;;;21.30;99.90;;;;;;5088357;28;21135;-90
2022/05/21 08:58:58;;;;;;;0.40;0.20;;;21.50;99.90;;;;;;5087051;28;20456;-90
2022/05/21 09:01:28;;;;;;;0.40;0.20;;;21.30;99.90;;;;;;5115591;28;20456;-90
2022/05/21 09:03:57;;;;;;;0.30;0.20;;;21.20;99.90;;;;;;5111219;28;20470;-90
2022/05/21 09:06:35;;;;;;;0.40;0.30;;;21.50;99.90;;;;;;5110566;28;20450;-90
2022/05/21 09:09:11;;;;;;;0.40;0.30;;;21.80;99.90;;;;;;5107521;28;20468;-90
2022/05/21 09:11:44;;;;;;;0.40;0.20;;;21.90;99.90;;;;;;5099944;28;20457;-88
2022/05/21 09:14:16;;;;;;;0.40;0.20;;;22.10;99.90;;;;;;5095211;28;20456;-90
2022/05/21 09:16:56;;;;;;;0.40;0.20;;;22.00;99.90;;;;;;5104777;28;20474;-93
2022/05/21 09:19:26;;;;;;;0.40;0.20;;;22.30;99.90;;;;;;5101537;28;20458;-92
2022/05/21 09:22:00;;;;;;;0.40;0.20;;;22.60;99.90;;;;;;5097797;28;20568;-92
2022/05/21 09:24:38;;;;;;;0.40;0.20;;;22.20;99.90;;;;;;5098774;28;20455;-91
2022/05/21 09:27:21;;;;;;;0.40;0.20;;;21.90;99.90;;;;;;5103075;28;20450;-90
2022/05/21 09:29:48;;;;;;;0.40;0.20;;;21.90;99.90;;;;;;5090567;28;20458;-91
2022/05/21 09:32:20;;;;;;;0.40;0.20;;;21.70;99.90;;;;;;5088532;28;20456;-90
2022/05/21 09:35:01;;;;;;;0.40;0.30;;;21.90;99.90;;;;;;5088348;28;20451;-91
2022/05/21 09:37:30;;;;;;;0.43;0.37;;;22.10;99.90;;;;;;5083685;28;20476;-91
2022/05/21 09:40:01;;;;;;;0.30;0.20;;;21.60;99.90;;;;;;5086625;28;20861;-92
2022/05/21 09:45:34;;;;;;;0.40;0.30;;;21.70;99.90;;;;;;5081479;28;20504;-91
2022/05/21 09:48:23;;;;;;;0.30;0.20;;;21.80;99.90;;;;;;5082740;28;20473;-90
2022/05/21 09:50:53;;;;;;;0.40;0.40;;;22.20;99.90;;;;;;5085297;28;20453;-93
2022/05/21 09:53:36;;;;;;;0.40;0.30;;;22.50;99.90;;;;;;5080167;28;20462;-92
2022/05/21 09:56:08;;;;;;;0.40;0.20;;;22.40;99.30;;;;;;5087253;28;20461;-94
2022/05/21 09:58:39;;;;;;;0.40;0.30;;;22.60;99.00;;;;;;5084421;28;21125;-91
2022/05/21 10:01:08;;;;;;;0.30;0.20;;;22.10;98.70;;;;;;5085097;28;20955;-92
2022/05/21 10:03:43;;;;;;;0.40;0.30;;;22.10;99.30;;;;;;5086981;28;20892;-92
2022/05/21 10:06:23;;;;;;;0.30;0.20;;;21.80;98.40;;;;;;5084991;28;20487;-91
2022/05/21 10:11:44;;;;;;;0.40;0.20;;;22.70;97.80;;;;;;5047109;28;20533;-92
2022/05/21 10:14:18;;;;;;;0.40;0.30;;;22.70;98.70;;;;;;5082303;28;20504;-89
2022/05/21 10:16:49;;;;;;;0.40;0.30;;;23.20;98.80;;;;;;5084210;28;20451;-89
2022/05/21 10:19:27;;;;;;;0.40;0.30;;;23.10;96.70;;;;;;5075058;28;20455;-89
2022/05/21 10:22:10;;;;;;;0.40;0.20;;;23.10;97.40;;;;;;5080896;28;20851;-89
2022/05/21 10:24:50;;;;;;;0.40;0.33;;;23.00;97.80;;;;;;5085539;28;20462;-87
2022/05/21 10:27:34;;;;;;;0.40;0.33;;;22.30;97.70;;;;;;5082464;28;20446;-88
2022/05/21 10:30:08;;;;;;;0.40;0.30;;;21.60;99.20;;;;;;5080377;28;20461;-89
2022/05/21 10:32:54;;;;;;;0.40;0.20;;;21.60;99.00;;;;;;5089231;28;20531;-89
2022/05/21 10:35:40;;;;;;;0.40;0.20;;;21.90;99.10;;;;;;5088549;28;20457;-88
2022/05/21 10:38:20;;;;;;;0.40;0.20;;;22.30;97.60;;;;;;5077355;28;21033;-89
2022/05/21 10:40:55;;;;;;;0.40;0.20;;;22.80;91.20;;;;;;5077676;28;20533;-89
2022/05/21 10:43:56;;;;;;;0.40;0.20;;;23.20;91.10;;;;;;5080135;28;20455;-88
2022/05/21 10:46:36;;;;;;;0.40;0.20;;;23.40;90.30;;;;;;5086671;28;21105;-90
2022/05/21 10:49:31;;;;;;;0.40;0.20;;;23.60;88.30;;;;;;5090389;28;20469;-89
2022/05/21 10:52:03;;;;;;;0.40;0.20;;;23.40;88.30;;;;;;5094333;28;20950;-89
2022/05/21 10:55:00;;;;;;;0.40;0.20;;;22.70;89.60;;;;;;5083060;28;20543;-88
2022/05/21 10:57:40;;;;;;;0.40;0.30;;;22.80;90.20;;;;;;5085582;28;20462;-92
2022/05/21 11:00:15;;;;;;;0.40;0.30;;;23.00;92.40;;;;;;5088542;28;20483;-89
2022/05/21 11:03:12;;;;;;;0.40;0.20;;;23.30;90.50;;;;;;5084917;28;21152;-89
2022/05/21 11:06:04;;;;;;;0.40;0.30;;;23.50;91.70;;;;;;5082859;28;20463;-89
2022/05/21 11:08:38;;;;;;;0.40;0.20;;;23.30;86.10;;;;;;5077730;28;21045;-89
2022/05/21 11:11:13;;;;;;;0.40;0.20;;;22.60;80.60;;;;;;5076428;28;20471;-86
2022/05/21 11:13:47;;;;;;;0.40;0.30;;;21.90;85.50;;;;;;5075637;28;20509;-89
2022/05/21 11:16:21;;;;;;;0.40;0.20;;;21.70;87.50;;;;;;5078400;28;20937;-88
2022/05/21 11:18:55;;;;;;;0.40;0.20;;;22.00;89.30;;;;;;5078058;28;20993;-92
2022/05/21 11:21:27;;;;;;;0.40;0.30;;;22.40;88.60;;;;;;5082331;28;20484;-88
2022/05/21 11:24:03;;;;;;;0.40;0.20;;;22.70;86.00;;;;;;5078870;28;20550;-88
2022/05/21 11:26:36;;;;;;;0.40;0.30;;;22.70;86.60;;;;;;5083186;28;20451;-88
2022/05/21 11:29:11;;;;;;;0.40;0.20;;;22.90;87.10;;;;;;5084117;28;20832;-87
2022/05/21 11:37:25;;;;;;;0.40;0.20;;;23.10;82.30;;;;;;5082608;28;20525;-88
2022/05/21 11:39:54;;;;;;;1.57;1.03;;;23.40;86.50;;;;;;5083567;28;20481;-89
2022/05/21 11:42:23;;;;;;;0.40;0.20;;;23.30;83.60;;;;;;5086615;28;20451;-87
2022/05/21 11:45:02;;;;;;;0.40;0.30;;;23.10;80.50;;;;;;5086743;28;20483;-89
2022/05/21 11:47:51;;;;;;;0.40;0.20;;;23.10;80.90;;;;;;5084346;28;20459;-88
2022/05/21 11:50:27;;;;;;;0.40;0.20;;;23.20;83.60;;;;;;5082775;28;20568;-89
2022/05/21 11:53:23;;;;;;;0.40;0.20;;;23.20;85.00;;;;;;5085659;28;20454;-90
2022/05/21 11:56:08;;;;;;;0.40;0.20;;;23.50;84.70;;;;;;5084577;28;20464;-91
2022/05/21 11:59:25;;;;;;;0.40;0.30;;;23.20;76.80;;;;;;5082744;28;20467;-89
2022/05/21 12:02:21;;;;;;;0.40;0.20;;;23.10;80.80;;;;;;5081087;28;20491;-90
2022/05/21 12:04:59;;;;;;;0.40;0.20;;;23.40;79.40;;;;;;5075895;28;20525;-89
2022/05/21 12:07:53;;;;;;;0.40;0.30;;;23.30;79.90;;;;;;5076401;28;20954;-89
2022/05/21 12:10:25;;;;;;;0.40;0.20;;;23.60;78.30;;;;;;5076751;28;21242;-88
2022/05/21 12:13:13;;;;;;;0.40;0.20;;;23.30;72.00;;;;;;5070566;28;21035;-90
2022/05/21 12:15:48;;;;;;;0.40;0.20;;;23.40;74.40;;;;;;5076572;28;20898;-92
2022/05/21 12:18:49;;;;;;;0.40;0.20;;;23.40;74.00;;;;;;5078914;28;20926;-89
2022/05/21 12:21:54;;;;;;;0.40;0.30;;;23.60;79.70;;;;;;5019413;28;20527;-89
2022/05/21 12:24:43;;;;;;;0.40;0.20;;;23.70;72.60;;;;;;5012520;28;20902;-90
2022/05/21 12:27:21;;;;;;;0.40;0.20;;;23.50;72.20;;;;;;5065887;28;20486;-88
2022/05/21 12:29:52;;;;;;;0.40;0.20;;;23.60;75.00;;;;;;5075675;28;20525;-90
2022/05/21 12:32:24;;;;;;;0.40;0.20;;;23.50;75.30;;;;;;5076204;28;20515;-90
2022/05/21 12:35:48;;;;;;;0.40;0.30;;;23.80;76.90;;;;;;5085244;28;20467;-90
2022/05/21 12:38:26;;;;;;;0.40;0.30;;;23.80;70.10;;;;;;5070497;28;20455;-90
2022/05/21 12:41:04;;;;;;;0.73;0.73;;;23.70;72.90;;;;;;5076910;28;20599;-89
2022/05/21 12:43:44;;;;;;;0.40;0.20;;;23.80;73.10;;;;;;5093803;28;20458;-89
2022/05/21 12:46:26;;;;;;;0.40;0.20;;;23.70;70.40;;;;;;5084267;28;20456;-89
2022/05/21 12:48:56;;;;;;;0.40;0.20;;;23.60;70.30;;;;;;5089510;28;20490;-90
2022/05/21 12:51:30;;;;;;;0.40;0.20;;;23.60;70.50;;;;;;5072021;28;20495;-89
2022/05/21 12:53:59;;;;;;;0.40;0.20;;;23.80;75.80;;;;;;5080635;28;20460;-90
2022/05/21 12:56:31;;;;;;;0.40;0.20;;;23.70;71.20;;;;;;5079886;28;20462;-89
2022/05/21 12:59:06;;;;;;;0.40;0.20;;;23.60;70.00;;;;;;5074225;28;20464;-91
2022/05/21 13:01:35;;;;;;;0.40;0.20;;;23.90;72.40;;;;;;5075089;28;20566;-88
2022/05/21 13:04:03;;;;;;;0.40;0.20;;;23.70;69.60;;;;;;5076165;28;20464;-90
2022/05/21 13:06:33;;;;;;;0.40;0.20;;;23.60;73.40;;;;;;5075403;28;20444;-90
2022/05/21 13:09:05;;;;;;;0.40;0.20;;;23.60;73.30;;;;;;5077004;28;20479;-91
2022/05/21 13:11:41;;;;;;;0.40;0.30;;;23.60;72.20;;;;;;5078010;28;20460;-90
2022/05/21 13:14:12;;;;;;;0.40;0.30;;;23.40;70.60;;;;;;5073649;28;20466;-92
2022/05/21 13:16:50;;;;;;;0.40;0.20;;;23.30;72.50;;;;;;5073130;28;20497;-91
2022/05/21 13:19:48;;;;;;;0.40;0.20;;;23.30;69.60;;;;;;5075020;28;20554;-91
2022/05/21 13:22:30;;;;;;;0.40;0.20;;;23.60;72.50;;;;;;5077888;28;20479;-88
2022/05/21 13:25:02;;;;;;;0.40;0.20;;;23.70;68.50;;;;;;5073137;28;20522;-89
2022/05/21 13:27:45;;;;;;;0.40;0.23;;;23.50;68.00;;;;;;5083301;28;20454;-89
2022/05/21 13:30:16;;;;;;;0.40;0.20;;;23.80;75.30;;;;;;5079074;28;20524;-88
2022/05/21 13:32:45;;;;;;;0.40;0.20;;;23.90;71.10;;;;;;5072500;28;20459;-88
2022/05/21 13:35:26;;;;;;;0.40;0.30;;;23.70;68.10;;;;;;5083131;28;20566;-89
2022/05/21 13:37:54;;;;;;;0.40;0.20;;;23.70;67.80;;;;;;5084282;28;20977;-89
2022/05/21 13:40:25;;;;;;;0.40;0.20;;;23.80;71.50;;;;;;5083861;28;20480;-89
2022/05/21 13:42:57;;;;;;;0.40;0.20;;;23.90;72.00;;;;;;5080095;28;20475;-89
2022/05/21 13:45:29;;;;;;;0.40;0.20;;;23.90;70.00;;;;;;5081444;28;20466;-88
2022/05/21 13:48:04;;;;;;;0.40;0.20;;;23.90;69.70;;;;;;5078293;28;20516;-88